Farafra, Egypt
Current Conditions -  °F | °C
As of 12:00 PM on Tuesday 21 Oct 2014 (Local Time) from HESG Reporting Station
Clear Clear  
Wind Chill: 81°   Ceiling: Unl
Heat Index: 81°   Visibility: 6mi
Dew Point: 55°   Wind: 8mph
Humidity: 42%   Direction: 320°NW
Pressure: 29.94"   Gusts: NA
Location:  27.05°N, 27.47°E
Report Text: HESG 211000Z 32007KT CAVOK 27/13 Q1014 NOSIG
Loading
Personal Weather Stations






























Interactive Weather Map New forecast layout! Learn more

10-Day Weather Forecast

Advertisements
Track Severe Weather on mobile